createdAt,value
2023-04-23T00:02:04.014Z,1.20
2023-04-23T00:04:36.537Z,2.40
2023-04-23T00:07:06.751Z,5.70
2023-04-23T00:09:36.260Z,18.70
2023-04-23T00:12:07.206Z,16.90
2023-04-23T00:14:35.753Z,16.60
2023-04-23T00:17:05.361Z,14.10
2023-04-23T00:19:33.387Z,13.00
2023-04-23T00:22:01.602Z,16.50
2023-04-23T00:24:29.737Z,25.00
2023-04-23T00:26:57.909Z,27.80
2023-04-23T00:29:26.145Z,30.40
2023-04-23T00:31:54.265Z,37.00
2023-04-23T00:34:23.813Z,49.40
2023-04-23T00:36:51.942Z,57.80
2023-04-23T00:39:19.974Z,58.20
2023-04-23T00:41:48.245Z,58.10
2023-04-23T00:44:16.366Z,50.90
2023-04-23T00:46:45.062Z,49.70
2023-04-23T00:49:14.894Z,42.90
2023-04-23T00:51:44.418Z,35.80
2023-04-23T00:54:12.655Z,29.90
2023-04-23T00:56:40.998Z,28.20
2023-04-23T00:59:09.395Z,30.40
2023-04-23T01:01:37.824Z,34.30
2023-04-23T01:04:06.166Z,41.00
2023-04-23T01:06:34.708Z,41.20
2023-04-23T01:09:06.086Z,43.20
2023-04-23T01:11:34.845Z,43.40
2023-04-23T01:14:04.247Z,48.00
2023-04-23T01:16:36.336Z,57.00
2023-04-23T01:19:06.712Z,48.60
2023-04-23T01:21:35.684Z,59.50
2023-04-23T01:24:05.587Z,70.50
2023-04-23T01:26:33.658Z,78.80
2023-04-23T01:29:04.049Z,94.50
2023-04-23T01:31:32.688Z,93.80
2023-04-23T01:34:02.786Z,97.10
2023-04-23T01:36:31.733Z,99.90
2023-04-23T01:38:59.908Z,98.60
2023-04-23T01:41:29.681Z,99.90
2023-04-23T01:43:58.721Z,99.90
2023-04-23T01:46:27.110Z,99.90
2023-04-23T01:48:55.335Z,99.90
2023-04-23T01:51:23.844Z,99.90
2023-04-23T01:53:51.878Z,99.90
2023-04-23T01:56:23.868Z,99.90
2023-04-23T01:58:55.909Z,99.90
2023-04-23T02:01:24.585Z,99.90
2023-04-23T02:03:53.064Z,99.90
2023-04-23T02:06:21.151Z,99.90
2023-04-23T02:08:49.709Z,99.90
2023-04-23T02:11:17.871Z,99.90
2023-04-23T02:13:45.927Z,99.90
2023-04-23T02:16:16.184Z,99.90
2023-04-23T02:18:44.391Z,99.90
2023-04-23T02:21:13.125Z,99.90
2023-04-23T02:23:41.243Z,99.90
2023-04-23T02:26:09.428Z,99.90
2023-04-23T02:28:38.010Z,99.90
2023-04-23T02:31:06.771Z,99.90
2023-04-23T02:33:36.312Z,99.90
2023-04-23T02:36:04.510Z,99.90
2023-04-23T02:38:32.586Z,99.90
2023-04-23T02:41:00.701Z,99.90
2023-04-23T02:43:29.352Z,99.90
2023-04-23T02:45:58.687Z,99.90
2023-04-23T02:48:27.317Z,99.90
2023-04-23T02:50:56.702Z,99.90
2023-04-23T02:53:24.846Z,99.90
2023-04-23T02:55:52.901Z,99.90
2023-04-23T02:58:21.048Z,99.90
2023-04-23T03:00:52.127Z,99.90
2023-04-23T03:03:20.695Z,99.90
2023-04-23T03:05:49.170Z,99.90
2023-04-23T03:08:18.583Z,99.90
2023-04-23T03:10:46.632Z,99.90
2023-04-23T03:13:15.029Z,99.90
2023-04-23T03:15:43.529Z,99.90
2023-04-23T03:18:11.992Z,99.90
2023-04-23T03:20:41.040Z,99.90
2023-04-23T03:23:09.222Z,99.90
2023-04-23T03:25:38.851Z,99.90
2023-04-23T03:28:07.001Z,99.90
2023-04-23T03:30:35.544Z,99.90
2023-04-23T03:33:04.448Z,1.00
2023-04-23T03:35:32.693Z,1.00
2023-04-23T03:38:03.237Z,1.00
2023-04-23T03:40:31.635Z,99.90
2023-04-23T03:43:04.730Z,99.90
2023-04-23T03:45:52.908Z,99.90
2023-04-23T03:48:21.646Z,99.90
2023-04-23T03:50:49.977Z,99.90
2023-04-23T03:53:40.855Z,99.90
2023-04-23T03:56:32.020Z,99.90
2023-04-23T03:59:30.361Z,99.90
2023-04-23T04:02:01.236Z,99.90
2023-04-23T04:04:29.796Z,99.90
2023-04-23T04:06:58.049Z,99.90
2023-04-23T04:09:28.734Z,99.90
2023-04-23T04:12:00.175Z,99.90
2023-04-23T04:14:28.299Z,99.90
2023-04-23T04:16:57.928Z,99.90
2023-04-23T04:19:26.067Z,99.90
2023-04-23T04:21:54.165Z,99.90
2023-04-23T04:24:26.215Z,99.90
2023-04-23T04:26:54.482Z,99.90
2023-04-23T04:29:23.912Z,99.90
2023-04-23T04:31:53.334Z,99.90
2023-04-23T04:34:23.248Z,99.90
2023-04-23T04:36:53.735Z,99.90
2023-04-23T04:39:23.046Z,99.90
2023-04-23T04:41:51.073Z,99.90
2023-04-23T04:44:19.325Z,99.90
2023-04-23T04:46:48.089Z,99.90
2023-04-23T04:49:19.435Z,99.90
2023-04-23T04:51:49.023Z,99.90
2023-04-23T04:54:17.409Z,1.00
2023-04-23T04:56:45.400Z,1.00
2023-04-23T04:59:13.880Z,1.00
2023-04-23T05:01:42.109Z,1.00
2023-04-23T05:04:10.409Z,1.00
2023-04-23T05:06:38.734Z,1.00
2023-04-23T05:09:08.429Z,1.00
2023-04-23T05:11:36.815Z,1.00
2023-04-23T05:14:05.256Z,1.00
2023-04-23T05:16:33.601Z,1.00
2023-04-23T05:19:01.621Z,1.00
2023-04-23T05:21:29.768Z,1.00
2023-04-23T05:23:57.861Z,1.00
2023-04-23T05:26:27.387Z,1.00
2023-04-23T05:28:55.495Z,1.00
2023-04-23T05:31:23.679Z,1.00
2023-04-23T05:33:51.738Z,1.00
2023-04-23T05:36:19.921Z,1.00
2023-04-23T05:38:48.220Z,1.00
2023-04-23T05:41:16.704Z,1.00
2023-04-23T05:43:46.058Z,1.00
2023-04-23T05:46:14.317Z,1.00
2023-04-23T05:48:42.430Z,1.00
2023-04-23T05:51:10.843Z,1.00
2023-04-23T05:53:39.062Z,1.00
2023-04-23T05:56:07.380Z,1.00
2023-04-23T05:58:35.488Z,1.00
2023-04-23T06:01:06.507Z,1.00
2023-04-23T06:03:37.028Z,1.00
2023-04-23T06:06:05.452Z,10.70
2023-04-23T06:08:33.502Z,78.10
2023-04-23T06:11:01.972Z,1.00
2023-04-23T06:13:30.843Z,21.90
2023-04-23T06:15:59.126Z,1.00
2023-04-23T06:18:28.613Z,1.00
2023-04-23T06:20:57.302Z,1.00
2023-04-23T06:23:25.748Z,1.00
2023-04-23T06:25:53.903Z,1.00
2023-04-23T06:28:22.011Z,3.70
2023-04-23T06:31:22.758Z,1.00
2023-04-23T06:33:52.568Z,1.00
2023-04-23T06:36:21.139Z,7.40
2023-04-23T06:38:49.114Z,1.00
2023-04-23T06:41:17.359Z,1.00
2023-04-23T06:43:45.965Z,20.60
2023-04-23T06:46:32.178Z,1.00
2023-04-23T06:49:01.693Z,99.90
2023-04-23T06:51:29.828Z,99.90
2023-04-23T06:53:58.637Z,99.90
2023-04-23T06:56:27.372Z,99.90
2023-04-23T06:58:55.437Z,99.90
2023-04-23T07:01:23.675Z,99.90
2023-04-23T07:03:54.536Z,99.90
2023-04-23T07:06:24.153Z,99.90
2023-04-23T07:08:52.194Z,1.00
2023-04-23T07:11:20.634Z,1.00
2023-04-23T07:13:48.686Z,1.00
2023-04-23T07:16:18.541Z,1.00
2023-04-23T07:18:47.797Z,1.00
2023-04-23T07:21:16.499Z,1.00
2023-04-23T07:23:45.938Z,1.00
2023-04-23T07:26:14.135Z,1.00
2023-04-23T07:28:42.134Z,1.00
2023-04-23T07:31:10.887Z,1.00
2023-04-23T07:33:42.652Z,1.00
2023-04-23T07:36:10.976Z,1.00
2023-04-23T07:38:39.495Z,1.00
2023-04-23T07:41:08.976Z,1.00
2023-04-23T07:43:37.034Z,1.00
2023-04-23T07:46:06.062Z,1.00
2023-04-23T07:48:34.824Z,1.00
2023-04-23T07:51:03.432Z,1.00
2023-04-23T07:53:31.462Z,1.00
2023-04-23T07:55:59.528Z,1.00
2023-04-23T07:58:29.050Z,1.00
2023-04-23T08:00:57.118Z,1.00
2023-04-23T08:03:25.406Z,1.00
2023-04-23T08:05:53.558Z,1.00
2023-04-23T08:08:21.598Z,1.00
2023-04-23T08:10:49.617Z,1.00
2023-04-23T08:13:18.058Z,99.90
2023-04-23T08:15:49.044Z,99.90
2023-04-23T08:18:17.335Z,99.90
2023-04-23T08:20:45.428Z,99.90
2023-04-23T08:23:13.618Z,99.90
2023-04-23T08:25:41.607Z,99.90
2023-04-23T08:28:09.738Z,99.90
2023-04-23T08:30:37.886Z,99.90
2023-04-23T08:33:07.381Z,1.00
2023-04-23T08:35:35.460Z,99.90
2023-04-23T08:38:03.514Z,1.00
2023-04-23T08:40:33.089Z,99.90
2023-04-23T08:43:04.024Z,99.90
2023-04-23T08:45:32.155Z,99.90
2023-04-23T08:48:02.942Z,99.90
2023-04-23T08:50:32.841Z,99.90
2023-04-23T08:53:01.140Z,23.10
2023-04-23T08:55:29.467Z,92.20
2023-04-23T08:58:00.392Z,1.00
2023-04-23T09:00:28.396Z,1.00
2023-04-23T09:02:57.807Z,1.00
2023-04-23T09:05:27.307Z,1.00
2023-04-23T09:08:00.528Z,1.00
2023-04-23T09:10:29.746Z,1.00
2023-04-23T09:12:57.965Z,1.00
2023-04-23T09:15:26.052Z,1.00
2023-04-23T09:17:54.173Z,1.00
2023-04-23T09:20:25.469Z,1.00
2023-04-23T09:22:53.756Z,1.00
2023-04-23T09:25:24.612Z,1.00
2023-04-23T09:27:53.928Z,1.00
2023-04-23T09:30:23.434Z,1.00
2023-04-23T09:32:53.066Z,1.00
2023-04-23T09:35:21.429Z,1.00
2023-04-23T09:37:52.562Z,1.00
2023-04-23T09:40:23.911Z,1.00
2023-04-23T09:42:54.467Z,1.00
2023-04-23T09:45:22.929Z,1.00
2023-04-23T09:47:52.309Z,1.00
2023-04-23T09:50:20.719Z,1.00
2023-04-23T09:52:56.209Z,1.00
2023-04-23T09:55:35.234Z,1.00
2023-04-23T09:58:04.502Z,1.00
2023-04-23T10:00:37.536Z,1.00
2023-04-23T10:03:07.977Z,1.00
2023-04-23T10:05:56.270Z,1.00
2023-04-23T10:08:29.039Z,99.90
2023-04-23T10:11:13.755Z,99.90
2023-04-23T10:13:46.643Z,99.90
2023-04-23T10:16:22.302Z,99.90
2023-04-23T10:18:53.084Z,99.90
2023-04-23T10:21:23.926Z,99.90
2023-04-23T10:23:52.897Z,99.90
2023-04-23T10:26:25.059Z,99.90
2023-04-23T10:28:56.125Z,99.90
2023-04-23T10:31:25.476Z,99.90
2023-04-23T10:33:58.915Z,99.90
2023-04-23T10:36:29.080Z,99.90
2023-04-23T10:39:01.352Z,99.90
2023-04-23T10:41:37.940Z,99.90
2023-04-23T10:44:07.279Z,99.90
2023-04-23T10:46:38.671Z,99.90
2023-04-23T10:49:09.548Z,99.90
2023-04-23T10:54:11.183Z,99.90
2023-04-23T10:56:41.948Z,99.90
2023-04-23T10:59:19.471Z,99.90
2023-04-23T11:01:49.453Z,99.90
2023-04-23T11:04:28.784Z,99.90
2023-04-23T11:06:59.352Z,99.90
2023-04-23T11:09:38.600Z,99.90
2023-04-23T11:12:13.905Z,99.90
2023-04-23T11:14:48.268Z,99.90
2023-04-23T11:17:18.290Z,99.90
2023-04-23T11:20:11.645Z,99.90
2023-04-23T11:22:41.249Z,99.90
2023-04-23T11:25:11.475Z,99.90
2023-04-23T11:27:42.588Z,99.90
2023-04-23T11:30:17.562Z,99.90
2023-04-23T11:32:49.411Z,99.90
2023-04-23T11:35:19.477Z,99.90
2023-04-23T11:37:49.266Z,99.90
2023-04-23T11:40:22.407Z,99.90
2023-04-23T11:42:54.733Z,99.90
2023-04-23T11:45:24.858Z,99.90
2023-04-23T11:47:55.984Z,99.90
2023-04-23T11:50:25.881Z,94.00
2023-04-23T11:52:54.538Z,94.20
2023-04-23T11:55:23.486Z,93.60
2023-04-23T11:57:53.779Z,66.10
2023-04-23T12:00:24.451Z,52.10
2023-04-23T12:02:53.904Z,53.20
2023-04-23T12:05:23.566Z,74.40
2023-04-23T12:07:52.924Z,58.10
2023-04-23T12:10:22.469Z,33.60
2023-04-23T12:12:53.443Z,42.80
2023-04-23T12:15:22.003Z,72.10
2023-04-23T12:17:51.254Z,66.60
2023-04-23T12:20:23.508Z,54.60
2023-04-23T12:22:51.847Z,55.70
2023-04-23T12:25:24.030Z,28.20
2023-04-23T12:27:53.489Z,24.70
2023-04-23T12:30:21.983Z,17.70
2023-04-23T12:32:50.095Z,17.30
2023-04-23T12:35:18.305Z,18.10
2023-04-23T12:37:46.627Z,22.60
2023-04-23T12:40:14.826Z,17.50
2023-04-23T12:42:43.036Z,16.10
2023-04-23T12:45:12.810Z,13.00
2023-04-23T12:47:41.107Z,1.00
2023-04-23T12:50:09.945Z,1.00
2023-04-23T12:52:38.266Z,1.00
2023-04-23T12:55:06.843Z,1.00
2023-04-23T12:57:34.941Z,1.00
2023-04-23T13:00:03.614Z,1.00
2023-04-23T13:02:33.341Z,1.00
2023-04-23T13:05:01.800Z,1.00
2023-04-23T13:07:30.045Z,1.00
2023-04-23T13:09:59.589Z,1.00
2023-04-23T13:12:27.882Z,1.00
2023-04-23T13:14:55.992Z,1.00
2023-04-23T13:17:26.268Z,1.00
2023-04-23T13:19:57.103Z,1.00
2023-04-23T13:22:28.719Z,1.00
2023-04-23T13:24:57.975Z,1.00
2023-04-23T13:27:27.402Z,1.00
2023-04-23T13:29:55.848Z,1.00
2023-04-23T13:32:27.082Z,1.00
2023-04-23T13:34:56.666Z,1.00
2023-04-23T13:37:26.456Z,1.00
2023-04-23T13:39:54.583Z,1.00
2023-04-23T13:42:22.726Z,1.00
2023-04-23T13:44:50.769Z,1.00
2023-04-23T13:47:18.905Z,1.00
2023-04-23T13:49:47.009Z,1.00
2023-04-23T13:52:16.565Z,1.00
2023-04-23T13:54:47.675Z,1.00
2023-04-23T13:57:16.112Z,1.00
2023-04-23T13:59:44.229Z,1.00
2023-04-23T14:02:12.698Z,1.00
2023-04-23T14:04:43.807Z,1.00
2023-04-23T14:07:11.871Z,1.00
2023-04-23T14:09:41.487Z,1.00
2023-04-23T14:12:10.454Z,1.00
2023-04-23T14:14:39.420Z,1.00
2023-04-23T14:17:07.468Z,1.00
2023-04-23T14:19:37.505Z,1.00
2023-04-23T14:22:06.177Z,1.00
2023-04-23T14:24:36.065Z,1.00
2023-04-23T14:27:05.995Z,1.00
2023-04-23T14:29:41.521Z,1.00
2023-04-23T14:32:09.809Z,1.00
2023-04-23T14:34:37.942Z,1.00
2023-04-23T14:37:06.138Z,1.00
2023-04-23T14:39:35.386Z,1.00
2023-04-23T14:42:05.157Z,1.00
2023-04-23T14:44:33.260Z,1.00
2023-04-23T14:47:01.339Z,1.00
2023-04-23T14:49:29.564Z,1.00
2023-04-23T14:51:58.699Z,1.00
2023-04-23T14:54:26.803Z,1.00
2023-04-23T14:56:54.851Z,1.00
2023-04-23T14:59:25.046Z,1.00
2023-04-23T15:01:53.280Z,1.00
2023-04-23T15:04:21.831Z,1.00
2023-04-23T15:06:50.295Z,1.00
2023-04-23T15:09:18.772Z,1.00
2023-04-23T15:11:46.917Z,1.00
2023-04-23T15:14:25.580Z,1.00
2023-04-23T15:16:55.052Z,1.00
2023-04-23T15:19:32.882Z,1.00
2023-04-23T15:22:00.912Z,1.00
2023-04-23T15:24:29.125Z,1.00
2023-04-23T15:26:59.271Z,1.00
2023-04-23T15:29:27.570Z,1.00
2023-04-23T15:31:58.127Z,1.00
2023-04-23T15:34:26.634Z,1.00
2023-04-23T15:36:56.132Z,1.00
2023-04-23T15:39:24.186Z,1.00
2023-04-23T15:41:53.718Z,1.00
2023-04-23T15:44:24.361Z,1.00
2023-04-23T15:46:52.531Z,1.00
2023-04-23T15:49:20.653Z,11.20
2023-04-23T15:51:48.825Z,23.30
2023-04-23T15:54:20.585Z,22.10
2023-04-23T15:56:48.943Z,23.80
2023-04-23T15:59:19.608Z,16.80
2023-04-23T16:01:50.655Z,35.70
2023-04-23T16:04:18.963Z,31.30
2023-04-23T16:06:47.848Z,48.00
2023-04-23T16:09:19.487Z,37.30
2023-04-23T16:11:52.685Z,27.30
2023-04-23T16:14:20.876Z,17.10
2023-04-23T16:16:49.323Z,27.70
2023-04-23T16:19:18.045Z,43.80
2023-04-23T16:21:46.062Z,57.10
2023-04-23T16:24:14.150Z,10.60
2023-04-23T16:26:42.355Z,10.70
2023-04-23T16:31:45.324Z,1.00
2023-04-23T16:34:13.514Z,1.00
2023-04-23T16:36:41.760Z,1.00
2023-04-23T16:39:11.281Z,1.00
2023-04-23T16:41:39.813Z,1.00
2023-04-23T16:44:08.012Z,1.00
2023-04-23T16:46:37.944Z,1.00
2023-04-23T16:49:06.338Z,1.00
2023-04-23T16:51:34.542Z,1.00
2023-04-23T16:54:02.558Z,1.00
2023-04-23T16:56:30.934Z,18.10
2023-04-23T16:58:59.522Z,36.80
2023-04-23T17:01:27.601Z,64.00
2023-04-23T17:03:57.287Z,82.70
2023-04-23T17:06:28.076Z,90.90
2023-04-23T17:08:58.279Z,99.90
2023-04-23T17:11:26.904Z,99.90
2023-04-23T17:13:55.862Z,99.90
2023-04-23T17:16:29.203Z,99.90
2023-04-23T17:18:59.441Z,99.90
2023-04-23T17:21:27.604Z,99.90
2023-04-23T17:23:55.778Z,99.90
2023-04-23T17:26:24.059Z,99.90
2023-04-23T17:28:52.358Z,99.90
2023-04-23T17:31:20.982Z,99.90
2023-04-23T17:33:50.215Z,99.90
2023-04-23T17:36:20.047Z,99.90
2023-04-23T17:38:48.169Z,99.90
2023-04-23T17:41:19.056Z,99.90
2023-04-23T17:43:47.140Z,99.90
2023-04-23T17:46:15.298Z,99.90
2023-04-23T17:48:43.324Z,99.90
2023-04-23T17:51:11.510Z,99.90
2023-04-23T17:53:42.180Z,99.90
2023-04-23T17:56:10.886Z,1.00
2023-04-23T17:58:39.322Z,1.00
2023-04-23T18:01:08.949Z,1.00
2023-04-23T18:03:37.332Z,1.00
2023-04-23T18:06:06.176Z,1.00
2023-04-23T18:08:34.898Z,1.00
2023-04-23T18:11:05.665Z,1.00
2023-04-23T18:13:34.290Z,1.00
2023-04-23T18:16:02.335Z,1.00
2023-04-23T18:18:30.548Z,1.00
2023-04-23T18:20:58.877Z,1.00
2023-04-23T18:23:27.108Z,1.00
2023-04-23T18:25:56.620Z,1.00
2023-04-23T18:28:26.244Z,1.00
2023-04-23T18:30:56.466Z,1.00
2023-04-23T18:33:32.847Z,1.00
2023-04-23T18:36:05.912Z,1.00
2023-04-23T18:38:40.450Z,1.00
2023-04-23T18:41:15.048Z,1.00
2023-04-23T18:43:45.630Z,1.00
2023-04-23T18:46:14.083Z,1.00
2023-04-23T18:48:47.671Z,1.00
2023-04-23T18:51:22.956Z,1.00
2023-04-23T18:53:51.350Z,1.00
2023-04-23T18:56:19.481Z,1.00
2023-04-23T18:58:48.921Z,1.00
2023-04-23T19:01:17.308Z,1.00
2023-04-23T19:03:45.617Z,1.00
2023-04-23T19:06:13.992Z,1.00
2023-04-23T19:08:42.497Z,1.00
2023-04-23T19:11:10.907Z,1.00
2023-04-23T19:13:41.926Z,1.00
2023-04-23T19:16:11.717Z,99.90
2023-04-23T19:18:40.052Z,99.90
2023-04-23T19:21:08.213Z,1.00
2023-04-23T19:23:36.298Z,99.90
2023-04-23T19:26:05.614Z,99.90
2023-04-23T19:28:34.332Z,1.00
2023-04-23T19:31:03.722Z,1.00
2023-04-23T19:33:35.440Z,1.00
2023-04-23T19:36:03.467Z,1.00
2023-04-23T19:38:32.992Z,1.00
2023-04-23T19:41:01.458Z,1.00
2023-04-23T19:43:29.535Z,1.00
2023-04-23T19:45:57.683Z,1.00
2023-04-23T19:48:26.017Z,1.00
2023-04-23T19:50:55.539Z,1.00
2023-04-23T19:53:24.391Z,1.00
2023-04-23T19:55:52.476Z,1.00
2023-04-23T19:58:23.244Z,1.00
2023-04-23T20:00:52.222Z,1.00
2023-04-23T20:03:21.002Z,40.00
2023-04-23T20:05:49.775Z,99.90
2023-04-23T20:08:29.402Z,98.30
2023-04-23T20:10:59.205Z,99.90
2023-04-23T20:13:27.324Z,99.90
2023-04-23T20:15:55.793Z,99.90
2023-04-23T20:18:25.528Z,99.90
2023-04-23T20:20:54.104Z,99.90
2023-04-23T20:23:23.579Z,99.90
2023-04-23T20:25:51.600Z,99.90
2023-04-23T20:28:19.875Z,1.00
2023-04-23T20:30:47.874Z,1.00
2023-04-23T20:33:18.804Z,1.00
2023-04-23T20:35:47.824Z,1.00
2023-04-23T20:38:20.418Z,1.00
2023-04-23T20:40:50.155Z,1.00
2023-04-23T20:43:18.505Z,1.00
2023-04-23T20:45:46.915Z,1.00
2023-04-23T20:48:15.388Z,1.00
2023-04-23T20:50:43.440Z,1.00
2023-04-23T20:53:11.517Z,1.00
2023-04-23T20:55:39.865Z,1.00
2023-04-23T20:58:09.349Z,1.00
2023-04-23T21:00:38.102Z,1.00
2023-04-23T21:03:06.916Z,1.00
2023-04-23T21:05:35.346Z,99.90
2023-04-23T21:08:03.418Z,99.90
2023-04-23T21:10:31.814Z,99.90
2023-04-23T21:13:00.486Z,99.90
2023-04-23T21:15:34.077Z,1.00
2023-04-23T21:18:02.577Z,1.00
2023-04-23T21:20:31.234Z,1.00
2023-04-23T21:22:59.327Z,1.00
2023-04-23T21:25:27.533Z,1.00
2023-04-23T21:27:56.302Z,1.00
2023-04-23T21:30:31.052Z,1.00
2023-04-23T21:33:00.520Z,1.00
2023-04-23T21:35:28.576Z,1.00
2023-04-23T21:37:56.631Z,1.00
2023-04-23T21:40:24.808Z,1.00
2023-04-23T21:42:52.898Z,1.00
2023-04-23T21:45:21.174Z,1.00
2023-04-23T21:47:49.414Z,1.00
2023-04-23T21:50:19.182Z,1.00
2023-04-23T21:52:47.364Z,1.00
2023-04-23T21:55:15.426Z,1.00
2023-04-23T21:57:43.505Z,1.00
2023-04-23T22:00:13.980Z,1.00
2023-04-23T22:02:46.341Z,1.00
2023-04-23T22:05:17.000Z,1.00
2023-04-23T22:07:46.934Z,1.00
2023-04-23T22:10:17.334Z,1.00
2023-04-23T22:12:46.483Z,1.00
2023-04-23T22:15:17.274Z,1.00
2023-04-23T22:17:48.377Z,1.00
2023-04-23T22:20:16.846Z,1.00
2023-04-23T22:22:46.369Z,99.90
2023-04-23T22:25:16.315Z,99.90
2023-04-23T22:27:44.512Z,99.90
2023-04-23T22:30:13.054Z,1.00
2023-04-23T22:32:41.581Z,1.00
2023-04-23T22:35:10.598Z,1.00
2023-04-23T22:37:39.466Z,1.00
2023-04-23T22:40:10.478Z,1.00
2023-04-23T22:42:38.750Z,1.00
2023-04-23T22:45:08.326Z,42.10
2023-04-23T22:47:37.029Z,1.00
2023-04-23T22:50:05.569Z,1.00
2023-04-23T22:52:33.748Z,1.00
2023-04-23T22:55:02.083Z,1.00
2023-04-23T22:57:31.710Z,1.00
2023-04-23T22:59:59.841Z,99.90
2023-04-23T23:02:28.055Z,99.90
2023-04-23T23:04:56.129Z,99.90
2023-04-23T23:07:24.466Z,99.90
2023-04-23T23:09:52.484Z,99.90
2023-04-23T23:12:20.583Z,99.90
2023-04-23T23:14:49.915Z,99.90
2023-04-23T23:17:18.051Z,99.90
2023-04-23T23:19:46.092Z,99.90
2023-04-23T23:22:14.174Z,99.90
2023-04-23T23:24:42.300Z,99.90
2023-04-23T23:27:10.362Z,99.90
2023-04-23T23:29:38.433Z,99.90
2023-04-23T23:32:07.952Z,99.90
2023-04-23T23:34:36.249Z,1.00
2023-04-23T23:37:04.650Z,12.70
2023-04-23T23:39:32.673Z,99.90
2023-04-23T23:42:01.879Z,1.00
2023-04-23T23:44:29.967Z,99.90
2023-04-23T23:46:58.174Z,99.90
2023-04-23T23:49:27.672Z,99.90
2023-04-23T23:51:55.731Z,99.90
2023-04-23T23:54:23.779Z,99.90
2023-04-23T23:56:51.867Z,99.90
2023-04-23T23:59:20.064Z,99.90
